Tionesta, Pennsylvania
Current Conditions -  °F | °C
As of 9:55 AM on Friday 28 Nov 2014 (Local Time) from KFKL Reporting Station
Overcast Overcast  
Wind Chill: 12°   Ceiling: 1500
Heat Index: 21°   Visibility: 5mi
Dew Point: 16°   Wind: 8mph
Humidity: 80%   Direction: 280°W
Pressure: 30.28"   Gusts: NA
Location:  41.5°N, 79.46°W
Report Text: KFKL 281455Z AUTO 28007KT 5SM BKN015 OVC022 M06/M09 A3028 RMK AO1 52010
Loading
Personal Weather Stations






























Interactive Weather Map New forecast layout! Learn more

10-Day Weather Forecast

Advertisements
Track Severe Weather on mobile